Time;durP1;ratioP1;P1;durP2;ratioP2;P2;SDS_P1;SDS_P2;PMS_P1;PMS_P2;Temp;Humidity;BMP_temperature;BMP_pressure;BME280_temperature;BME280_humidity;BME280_pressure;Samples;Min_cycle;Max_cycle;Signal;HPM_P1;HPM_P2
2022/05/14 00:01:02;;;;;;;7.35;3.60;;;;;;;17.95;67.80;99358.50;4321931;33;34367;-69
2022/05/14 00:03:32;;;;;;;5.70;3.72;;;;;;;18.02;68.13;99350.31;4317225;33;34859;-69
2022/05/14 00:06:04;;;;;;;7.90;3.95;;;;;;;18.10;67.87;99356.13;4307167;33;35239;-69
2022/05/14 00:08:32;;;;;;;6.70;3.60;;;;;;;18.09;67.72;99350.03;4319298;33;34541;-69
2022/05/14 00:13:52;;;;;;;5.57;3.80;;;;;;;18.10;67.47;99356.13;4320666;33;33248;-69
2022/05/14 00:16:23;;;;;;;6.93;4.03;;;;;;;17.79;69.06;99349.47;4321707;33;35048;-69
2022/05/14 00:18:53;;;;;;;7.68;3.95;;;;;;;17.86;68.88;99353.59;4318072;33;35204;-69
2022/05/14 00:21:22;;;;;;;7.60;3.87;;;;;;;17.72;69.60;99371.69;4318265;33;32767;-69
2022/05/14 00:23:50;;;;;;;6.97;3.45;;;;;;;17.80;69.41;99365.19;4329893;33;34868;-69
2022/05/14 00:26:21;;;;;;;7.45;4.25;;;;;;;17.90;68.96;99365.72;4331712;33;36089;-69
2022/05/14 00:28:50;;;;;;;7.72;4.15;;;;;;;17.52;70.76;99365.41;4317108;33;35241;-69
2022/05/14 00:31:20;;;;;;;5.50;3.90;;;;;;;17.12;72.44;99356.44;4318885;33;32690;-69
2022/05/14 00:33:48;;;;;;;8.40;4.05;;;;;;;17.01;73.21;99364.72;4317931;33;33921;-69
2022/05/14 00:36:17;;;;;;;6.85;4.32;;;;;;;17.19;72.51;99355.28;4319924;33;35769;-69
2022/05/14 00:38:46;;;;;;;8.40;4.25;;;;;;;17.38;71.69;99352.81;4317974;33;35105;-69
2022/05/14 00:41:15;;;;;;;8.02;4.32;;;;;;;17.40;71.83;99347.47;4317518;33;33592;-69
2022/05/14 00:43:49;;;;;;;6.53;4.43;;;;;;;17.36;71.87;99343.25;4318375;33;34026;-69
2022/05/14 00:46:28;;;;;;;6.65;4.53;;;;;;;17.29;72.04;99341.75;4319929;33;35882;-69
2022/05/14 00:48:58;;;;;;;6.40;4.15;;;;;;;17.56;71.22;99337.19;4320772;33;35134;-68
2022/05/14 00:51:35;;;;;;;8.32;4.10;;;;;;;17.39;71.83;99338.72;4317860;33;31818;-69
2022/05/14 00:54:10;;;;;;;6.78;4.45;;;;;;;17.34;72.13;99348.56;4319007;33;34742;-69
2022/05/14 00:56:43;;;;;;;5.55;3.85;;;;;;;17.67;70.92;99349.97;4318504;33;35020;-69
2022/05/14 00:59:14;;;;;;;8.55;4.50;;;;;;;17.53;71.58;99353.97;4308114;33;33780;-69
2022/05/14 01:01:45;;;;;;;6.43;4.05;;;;;;;17.57;71.37;99355.56;4321528;33;34344;-69
2022/05/14 01:04:15;;;;;;;7.37;4.07;;;;;;;17.74;70.76;99348.78;4326091;33;33162;-69
2022/05/14 01:06:50;;;;;;;6.97;4.37;;;;;;;17.54;71.54;99353.06;4317936;33;34319;-69
2022/05/14 01:09:19;;;;;;;8.30;4.50;;;;;;;17.65;71.02;99339.47;4318092;33;34433;-69
2022/05/14 01:11:51;;;;;;;9.10;5.60;;;;;;;17.92;69.90;99348.06;4319918;33;34604;-69
2022/05/14 01:14:21;;;;;;;6.50;4.20;;;;;;;17.72;70.88;99353.28;4320444;33;34015;-69
2022/05/14 01:16:52;;;;;;;7.43;4.62;;;;;;;17.93;69.80;99351.56;4319240;33;35012;-69
2022/05/14 01:19:21;;;;;;;7.97;4.40;;;;;;;17.88;70.06;99350.91;4318058;33;33700;-69
2022/05/14 01:22:04;;;;;;;7.22;4.60;;;;;;;17.61;71.20;99359.81;4319044;33;34954;-69
2022/05/14 01:27:43;;;;;;;6.18;4.20;;;;;;;17.40;71.76;99366.75;4320015;33;34991;-69
2022/05/14 01:30:14;;;;;;;8.70;5.10;;;;;;;17.70;70.87;99361.22;4321496;33;34444;-69
2022/05/14 01:32:46;;;;;;;7.28;4.72;;;;;;;17.90;69.31;99370.13;4329184;33;34355;-69
2022/05/14 01:35:17;;;;;;;6.82;4.22;;;;;;;18.07;68.55;99361.53;4321407;33;34751;-69
2022/05/14 01:37:47;;;;;;;8.10;4.65;;;;;;;17.78;69.81;99359.13;4330718;33;35162;-69
2022/05/14 01:40:15;;;;;;;7.18;4.65;;;;;;;17.58;70.38;99366.97;4319656;33;34416;-69
2022/05/14 01:42:44;;;;;;;14.55;5.07;;;;;;;17.69;70.14;99358.66;4318632;33;34263;-69
2022/05/14 01:45:12;;;;;;;7.80;4.97;;;;;;;17.65;70.01;99360.56;4318997;33;34820;-69
2022/05/14 01:47:41;;;;;;;8.63;5.35;;;;;;;18.07;68.21;99375.59;4317704;33;35893;-69
2022/05/14 01:50:09;;;;;;;7.15;5.15;;;;;;;17.85;69.32;99370.28;4308255;33;34390;-69
2022/05/14 01:52:38;;;;;;;7.82;4.85;;;;;;;18.02;68.79;99372.28;4331763;33;33505;-69
2022/05/14 01:55:07;;;;;;;8.43;5.32;;;;;;;18.23;67.86;99367.91;4306419;33;34837;-69
2022/05/14 01:57:37;;;;;;;7.22;5.18;;;;;;;17.75;69.33;99367.16;4318395;33;35037;-69
2022/05/14 02:00:10;;;;;;;9.32;5.65;;;;;;;17.21;72.00;99361.34;4318696;33;34544;-69
2022/05/14 02:02:41;;;;;;;8.00;4.80;;;;;;;17.62;70.79;99360.66;4305596;33;33724;-69
2022/05/14 02:05:11;;;;;;;6.75;5.10;;;;;;;17.66;70.52;99374.56;4321487;33;33276;-69
2022/05/14 02:07:42;;;;;;;10.85;5.72;;;;;;;18.02;68.78;99374.91;4332464;33;36545;-69
2022/05/14 02:10:11;;;;;;;9.02;5.32;;;;;;;17.60;70.14;99365.12;4333791;33;34417;-69
2022/05/14 02:12:40;;;;;;;8.23;5.72;;;;;;;17.17;72.39;99356.22;4331811;33;33436;-69
2022/05/14 02:15:10;;;;;;;8.25;5.47;;;;;;;17.35;71.40;99362.59;4318723;33;33947;-69
2022/05/14 02:17:39;;;;;;;9.18;4.93;;;;;;;17.15;72.48;99374.72;4318350;33;35057;-69
2022/05/14 02:20:08;;;;;;;8.40;5.10;;;;;;;17.07;73.07;99373.31;4319295;33;35115;-69
2022/05/14 02:22:38;;;;;;;9.70;5.78;;;;;;;17.45;71.56;99369.19;4318716;33;34297;-69
2022/05/14 02:25:10;;;;;;;8.10;5.68;;;;;;;17.19;72.52;99362.31;4304805;33;33301;-69
2022/05/14 02:27:40;;;;;;;9.25;5.87;;;;;;;17.56;70.93;99361.75;4303290;33;35112;-69
2022/05/14 02:30:14;;;;;;;9.82;6.22;;;;;;;17.50;71.15;99363.78;4319304;33;35388;-69
2022/05/14 02:32:43;;;;;;;8.95;5.47;;;;;;;17.25;71.99;99367.34;4318243;33;34264;-69
2022/05/14 02:35:12;;;;;;;7.75;6.20;;;;;;;17.51;70.95;99373.41;4306402;33;33935;-69
2022/05/14 02:37:41;;;;;;;7.97;5.60;;;;;;;17.37;70.91;99366.03;4305328;33;34918;-69
2022/05/14 02:40:11;;;;;;;11.75;5.93;;;;;;;16.71;73.59;99374.50;4304437;33;35029;-69
2022/05/14 02:42:39;;;;;;;7.80;5.55;;;;;;;16.55;74.84;99375.97;4298022;33;33484;-69
2022/05/14 02:45:09;;;;;;;9.95;5.75;;;;;;;16.89;73.18;99380.06;4333300;33;33682;-69
2022/05/14 02:47:38;;;;;;;11.27;6.22;;;;;;;16.87;73.20;99370.47;4320572;33;35960;-69
2022/05/14 02:50:09;;;;;;;10.80;6.40;;;;;;;16.68;74.21;99372.03;4319828;33;34012;-69
2022/05/14 02:52:40;;;;;;;11.30;6.57;;;;;;;16.67;75.12;99384.28;4320914;33;33836;-69
2022/05/14 02:55:10;;;;;;;11.35;6.70;;;;;;;16.84;74.61;99382.88;4326183;33;33984;-69
2022/05/14 02:57:40;;;;;;;11.45;6.72;;;;;;;16.52;75.60;99387.47;4306901;33;35052;-69
2022/05/14 03:00:13;;;;;;;12.30;6.62;;;;;;;16.49;76.09;99385.78;4332636;33;34531;-69
2022/05/14 03:02:45;;;;;;;10.82;6.50;;;;;;;16.86;74.86;99387.16;4320105;33;33370;-69
2022/05/14 03:05:19;;;;;;;10.75;6.72;;;;;;;17.09;73.78;99393.38;4329241;33;34884;-69
2022/05/14 03:07:48;;;;;;;8.57;5.95;;;;;;;16.65;75.85;99387.88;4317894;33;35948;-69
2022/05/14 03:10:18;;;;;;;11.95;6.70;;;;;;;16.83;74.57;99387.25;4291339;33;34566;-69
2022/05/14 03:12:48;;;;;;;9.27;6.37;;;;;;;16.85;74.37;99393.34;4297189;33;32607;-69
2022/05/14 03:15:18;;;;;;;10.35;6.50;;;;;;;16.71;74.81;99403.44;4318814;33;34054;-69
2022/05/14 03:17:47;;;;;;;10.30;6.97;;;;;;;16.57;75.96;99397.81;4305597;33;35992;-69
2022/05/14 03:20:16;;;;;;;11.18;7.30;;;;;;;16.20;77.66;99404.28;4317726;33;35333;-69
2022/05/14 03:22:46;;;;;;;10.15;6.43;;;;;;;16.05;78.84;99409.13;4320604;33;33628;-69
2022/05/14 03:25:15;;;;;;;10.75;7.00;;;;;;;16.69;76.12;99410.53;4319873;33;31268;-69
2022/05/14 03:27:51;;;;;;;11.65;7.47;;;;;;;16.11;78.02;99416.84;4316402;33;35003;-70
2022/05/14 03:30:35;;;;;;;15.13;7.20;;;;;;;16.15;78.49;99414.09;4312784;33;34522;-69
2022/05/14 03:33:05;;;;;;;11.88;6.85;;;;;;;16.86;75.23;99428.38;4319192;33;33940;-69
2022/05/14 03:35:35;;;;;;;10.07;7.10;;;;;;;16.63;76.46;99421.28;4318639;33;34829;-68
2022/05/14 03:38:45;;;;;;;11.48;7.15;;;;;;;16.20;78.12;99428.81;4314703;33;35108;-69
2022/05/14 03:41:53;;;;;;;10.40;6.32;;;;;;;16.48;77.24;99427.88;4308919;33;34433;-69
2022/05/14 03:44:29;;;;;;;10.95;6.78;;;;;;;17.13;74.33;99421.28;4326810;33;33646;-68
2022/05/14 03:47:37;;;;;;;10.27;6.20;;;;;;;17.37;73.34;99423.94;4332187;33;34769;-72
2022/05/14 03:50:25;;;;;;;;;;;;;;;;;;;;;
2022/05/14 03:53:53;;;;;;;11.30;7.30;;;;;;;17.33;72.94;99427.56;4327258;33;34372;-74
2022/05/14 03:57:14;;;;;;;10.07;6.97;;;;;;;16.84;76.04;99441.59;4298617;33;33594;-72
2022/05/14 03:59:46;;;;;;;12.88;7.32;;;;;;;17.09;75.33;99440.72;4323183;33;34067;-74
2022/05/14 04:02:23;;;;;;;11.37;7.40;;;;;;;16.80;76.41;99442.59;4319167;33;35875;-75
2022/05/14 04:04:53;;;;;;;13.18;7.25;;;;;;;16.83;76.26;99450.38;4319045;33;35237;-74
2022/05/14 04:07:22;;;;;;;10.65;7.32;;;;;;;17.63;73.40;99457.19;4323689;33;34024;-71
2022/05/14 04:09:52;;;;;;;9.90;6.87;;;;;;;17.44;74.21;99457.84;4323510;33;34762;-70
2022/05/14 04:12:23;;;;;;;10.63;6.85;;;;;;;17.92;72.17;99453.44;4310868;33;36064;-69
2022/05/14 04:14:52;;;;;;;10.98;6.80;;;;;;;18.14;71.26;99456.09;4310754;33;35192;-71
2022/05/14 04:17:25;;;;;;;10.20;7.20;;;;;;;18.19;70.83;99463.81;4319818;33;33310;-70
2022/05/14 04:19:56;;;;;;;9.63;7.30;;;;;;;17.52;74.21;99469.88;4318788;33;34021;-69
2022/05/14 04:22:28;;;;;;;11.07;7.07;;;;;;;18.31;70.51;99471.22;4294385;33;35259;-69
2022/05/14 04:24:56;;;;;;;13.77;7.03;;;;;;;18.33;70.85;99469.38;4306340;33;34555;-69
2022/05/14 04:27:25;;;;;;;11.77;6.97;;;;;;;18.13;72.17;99478.09;4306986;33;34032;-69
2022/05/14 04:29:56;;;;;;;9.98;6.62;;;;;;;17.96;72.72;99481.38;4306388;33;34676;-69
2022/05/14 04:32:26;;;;;;;10.63;6.62;;;;;;;18.32;70.48;99487.91;4318333;33;35110;-69
2022/05/14 04:34:57;;;;;;;8.73;6.68;;;;;;;18.23;71.11;99486.50;4305752;33;32628;-69
2022/05/14 04:37:29;;;;;;;10.20;6.37;;;;;;;18.12;71.76;99492.19;4320271;33;33770;-69
2022/05/14 04:39:59;;;;;;;12.23;6.07;;;;;;;18.61;70.15;99489.34;4328008;33;34857;-69
2022/05/14 04:42:29;;;;;;;8.20;5.45;;;;;;;18.69;69.61;99494.31;4334853;33;35117;-69
2022/05/14 04:44:59;;;;;;;8.65;5.72;;;;;;;18.95;68.19;99487.94;4323907;33;35122;-69
2022/05/14 04:47:28;;;;;;;8.77;6.12;;;;;;;18.71;68.70;99498.59;4306717;33;34399;-69
2022/05/14 04:49:56;;;;;;;9.85;5.82;;;;;;;18.73;68.28;99488.00;4320693;33;33938;-70
2022/05/14 04:52:25;;;;;;;11.85;6.12;;;;;;;19.16;66.68;99487.97;4334584;33;35078;-69
2022/05/14 04:54:52;;;;;;;9.95;5.40;;;;;;;19.28;65.93;99495.34;4324624;33;34629;-72
2022/05/14 04:57:20;;;;;;;8.98;6.20;;;;;;;18.90;68.06;99495.22;4294802;33;33565;-73
2022/05/14 04:59:49;;;;;;;9.50;6.68;;;;;;;19.19;66.93;99496.59;4318729;33;33979;-71
2022/05/14 05:05:05;;;;;;;9.02;5.65;;;;;;;18.98;67.89;99508.94;4317804;33;34582;-71
2022/05/14 05:07:33;;;;;;;9.90;6.05;;;;;;;19.09;66.36;99506.69;4306626;33;34404;-71
2022/05/14 05:10:01;;;;;;;10.43;5.68;;;;;;;19.25;66.11;99512.19;4305608;33;33058;-71
2022/05/14 05:12:29;;;;;;;8.95;5.55;;;;;;;19.18;65.44;99515.16;4319691;33;35885;-71
2022/05/14 05:14:57;;;;;;;9.75;5.75;;;;;;;19.67;64.50;99503.25;4313505;33;34564;-71
2022/05/14 05:17:26;;;;;;;9.27;6.12;;;;;;;20.08;62.05;99516.38;4334318;33;33582;-70
2022/05/14 05:19:54;;;;;;;7.12;5.22;;;;;;;19.66;62.87;99509.47;4319446;33;33862;-70
2022/05/14 05:22:21;;;;;;;9.63;5.57;;;;;;;19.89;62.71;99516.38;4314657;33;35020;-72
2022/05/14 05:24:49;;;;;;;9.38;5.00;;;;;;;20.63;61.06;99525.28;4318522;33;35191;-71
2022/05/14 05:27:17;;;;;;;9.43;5.82;;;;;;;20.33;62.09;99528.44;4319606;33;34564;-72
2022/05/14 05:29:45;;;;;;;6.97;5.22;;;;;;;20.90;59.70;99528.31;4324893;33;34862;-71
2022/05/14 05:32:15;;;;;;;9.38;5.20;;;;;;;20.84;59.74;99528.63;4333789;33;35016;-71
2022/05/14 05:34:43;;;;;;;5.97;4.40;;;;;;;20.95;58.86;99536.87;4313490;33;34414;-71
2022/05/14 05:37:11;;;;;;;7.37;4.60;;;;;;;20.51;59.66;99539.06;4319713;33;34378;-71
2022/05/14 05:39:39;;;;;;;7.72;4.93;;;;;;;20.41;59.34;99542.13;4311021;33;34664;-70
2022/05/14 05:42:07;;;;;;;6.57;4.20;;;;;;;20.75;57.51;99544.97;4306441;33;35147;-71
2022/05/14 05:44:42;;;;;;;8.35;4.50;;;;;;;20.64;56.44;99551.63;4323193;33;35236;-71
2022/05/14 05:47:10;;;;;;;7.12;4.62;;;;;;;20.95;56.56;99542.19;4334044;33;33493;-71
2022/05/14 05:49:38;;;;;;;8.73;4.60;;;;;;;20.84;57.26;99549.78;4327523;33;34641;-71
2022/05/14 05:52:06;;;;;;;12.55;5.22;;;;;;;20.83;56.22;99548.09;4306297;33;34903;-71
2022/05/14 05:57:38;;;;;;;7.35;4.72;;;;;;;21.32;55.89;99560.66;4321451;33;33464;-71
2022/05/14 06:00:15;;;;;;;26.58;15.88;;;;;;;21.63;55.25;99561.72;4301295;33;34758;-71
2022/05/14 06:02:44;;;;;;;17.05;7.50;;;;;;;21.70;54.11;99569.25;4333990;33;36019;-71
2022/05/14 06:05:13;;;;;;;12.10;7.00;;;;;;;21.75;53.51;99558.41;4332095;33;35142;-71
2022/05/14 06:07:42;;;;;;;9.95;4.82;;;;;;;21.38;54.65;99560.31;4333921;33;33473;-71
2022/05/14 06:10:13;;;;;;;11.63;4.55;;;;;;;21.03;55.01;99565.59;4312987;33;34040;-71
2022/05/14 06:12:41;;;;;;;9.45;4.00;;;;;;;21.51;53.51;99566.72;4293178;33;33867;-71
2022/05/14 06:15:10;;;;;;;9.25;4.35;;;;;;;21.89;49.32;99573.59;4318379;33;34414;-71
2022/05/14 06:17:40;;;;;;;12.02;5.22;;;;;;;21.85;50.70;99569.34;4306289;33;33831;-76
2022/05/14 06:20:13;;;;;;;8.65;4.50;;;;;;;22.18;50.94;99574.63;4305205;33;33209;-76
2022/05/14 06:22:41;;;;;;;8.57;3.60;;;;;;;21.99;50.81;99572.16;4318129;33;35848;-75
2022/05/14 06:25:10;;;;;;;6.60;4.00;;;;;;;22.47;48.94;99572.22;4324526;33;34406;-76
2022/05/14 06:27:39;;;;;;;5.37;3.33;;;;;;;22.32;48.73;99580.09;4318174;33;34166;-77
2022/05/14 06:30:08;;;;;;;4.53;3.15;;;;;;;22.04;50.05;99574.53;4317035;33;34069;-79
2022/05/14 06:32:36;;;;;;;6.18;3.33;;;;;;;22.33;49.10;99575.63;4317282;33;34719;-81
2022/05/14 06:35:07;;;;;;;4.82;2.85;;;;;;;22.19;47.08;99564.91;4317114;33;34672;-78
2022/05/14 06:37:35;;;;;;;3.50;2.47;;;;;;;22.61;44.26;99566.97;4319140;33;34391;-79
2022/05/14 06:40:04;;;;;;;9.73;2.70;;;;;;;22.74;44.48;99572.44;4324438;33;34547;-79
2022/05/14 06:42:35;;;;;;;9.52;2.85;;;;;;;22.35;44.18;99579.03;4325681;33;34970;-77
2022/05/14 06:45:04;;;;;;;5.65;3.35;;;;;;;22.48;43.97;99574.78;4290606;33;35117;-81
2022/05/14 06:47:32;;;;;;;5.18;2.75;;;;;;;22.96;45.85;99574.72;4305204;33;31847;-77
2022/05/14 06:50:00;;;;;;;5.37;2.47;;;;;;;23.15;44.41;99585.12;4298504;33;33947;-77
2022/05/14 06:52:28;;;;;;;4.18;2.75;;;;;;;23.41;42.38;99583.56;4320423;33;34932;-76
2022/05/14 06:54:56;;;;;;;5.55;2.45;;;;;;;23.42;43.24;99592.44;4331500;33;34498;-77
2022/05/14 06:57:24;;;;;;;7.43;2.60;;;;;;;23.35;42.94;99591.06;4308327;33;33423;-78
2022/05/14 06:59:52;;;;;;;5.97;2.70;;;;;;;23.43;43.61;99592.31;4319466;33;33629;-78
2022/05/14 07:02:20;;;;;;;6.68;2.95;;;;;;;23.25;45.41;99596.91;4318764;33;35077;-81
2022/05/14 07:07:35;;;;;;;4.82;3.12;;;;;;;23.89;41.36;99606.44;4307177;33;32905;-78
2022/05/14 07:10:03;;;;;;;7.87;2.87;;;;;;;24.02;40.65;99602.94;4317937;33;33778;-77
2022/05/14 07:12:32;;;;;;;9.82;3.53;;;;;;;23.35;42.89;99602.56;4305701;33;34964;-76
2022/05/14 07:15:02;;;;;;;8.73;2.90;;;;;;;23.41;43.62;99601.34;4304234;33;34673;-77
2022/05/14 07:17:31;;;;;;;3.85;2.30;;;;;;;23.88;41.49;99602.06;4318684;33;33049;-76
2022/05/14 07:19:59;;;;;;;5.65;2.90;;;;;;;23.98;41.97;99609.41;4309110;33;34693;-77
2022/05/14 07:22:27;;;;;;;5.55;3.05;;;;;;;23.30;44.51;99603.78;4319996;33;36001;-77
2022/05/14 07:24:55;;;;;;;5.68;3.03;;;;;;;23.40;44.22;99604.91;4327707;33;35042;-76
2022/05/14 07:27:23;;;;;;;4.80;3.10;;;;;;;23.78;42.05;99599.09;4318445;33;33491;-75
2022/05/14 07:29:51;;;;;;;5.57;2.90;;;;;;;23.66;45.13;99601.56;4317290;33;34820;-77
2022/05/14 07:32:19;;;;;;;5.97;2.90;;;;;;;24.06;42.86;99603.59;4317418;33;35029;-77
2022/05/14 07:34:47;;;;;;;8.20;2.75;;;;;;;24.33;40.89;99603.66;4307402;33;35280;-77
2022/05/14 07:37:27;;;;;;;6.85;3.33;;;;;;;24.37;42.71;99599.00;4333068;33;34247;-76
2022/05/14 07:40:02;;;;;;;6.53;4.15;;;;;;;24.57;40.18;99603.94;4331371;33;34064;-77
2022/05/14 07:42:38;;;;;;;6.87;2.80;;;;;;;24.99;40.74;99606.56;4333039;33;34965;-77
2022/05/14 07:45:09;;;;;;;4.32;2.62;;;;;;;24.51;43.01;99604.31;4318076;33;34392;-77
2022/05/14 07:47:40;;;;;;;5.80;2.40;;;;;;;25.13;38.86;99601.16;4332830;33;33471;-78
2022/05/14 07:50:08;;;;;;;6.45;2.67;;;;;;;24.42;40.01;99608.41;4313222;33;34771;-77
2022/05/14 07:52:39;;;;;;;3.83;2.60;;;;;;;24.00;39.72;99601.31;4305020;33;35883;-79
2022/05/14 07:55:09;;;;;;;5.65;2.80;;;;;;;24.95;38.75;99605.03;4306571;33;34624;-78
2022/05/14 07:57:38;;;;;;;4.93;2.72;;;;;;;25.03;37.42;99604.53;4319607;33;33655;-77
2022/05/14 08:00:07;;;;;;;5.37;2.75;;;;;;;24.58;38.56;99610.97;4313312;33;33339;-77
2022/05/14 08:02:42;;;;;;;6.57;2.78;;;;;;;24.92;38.95;99602.59;4316830;33;35110;-78
2022/05/14 08:05:12;;;;;;;6.30;2.97;;;;;;;25.37;37.50;99607.63;4304149;33;35273;-79
2022/05/14 08:07:40;;;;;;;5.00;2.00;;;;;;;25.12;39.40;99612.75;4319360;33;32890;-78
2022/05/14 08:10:10;;;;;;;4.15;2.33;;;;;;;25.37;36.63;99608.47;4306431;33;34699;-78
2022/05/14 08:12:43;;;;;;;7.45;2.95;;;;;;;24.59;37.21;99606.50;4320005;33;35860;-79
2022/05/14 08:15:14;;;;;;;7.18;2.65;;;;;;;25.57;35.19;99612.44;4323519;33;34439;-79
2022/05/14 08:17:44;;;;;;;8.32;2.30;;;;;;;25.41;37.04;99614.44;4319205;33;33438;-79
2022/05/14 08:20:14;;;;;;;4.45;2.42;;;;;;;25.44;35.39;99612.44;4323341;33;34844;-77
2022/05/14 08:25:29;;;;;;;4.97;2.60;;;;;;;25.83;32.68;99602.63;4321827;33;34465;-77
2022/05/14 08:27:58;;;;;;;7.35;2.45;;;;;;;25.50;34.52;99609.38;4326535;33;33420;-80
2022/05/14 08:30:29;;;;;;;5.37;2.20;;;;;;;25.58;33.08;99613.31;4306146;33;33989;-79
2022/05/14 08:32:58;;;;;;;8.27;2.55;;;;;;;25.71;35.66;99608.81;4311541;33;35122;-80
2022/05/14 08:35:28;;;;;;;3.75;2.50;;;;;;;25.71;34.11;99609.69;4318413;33;34616;-79
2022/05/14 08:37:57;;;;;;;4.25;2.15;;;;;;;26.08;33.77;99603.59;4319925;33;33185;-77
2022/05/14 08:40:37;;;;;;;7.60;2.53;;;;;;;24.94;37.56;99600.69;4318876;33;34653;-85
2022/05/14 08:43:12;;;;;;;3.50;1.85;;;;;;;25.73;34.41;99596.22;4318521;33;35164;-78
2022/05/14 08:45:40;;;;;;;7.40;1.83;;;;;;;25.68;33.49;99601.06;4317872;33;34450;-79
2022/05/14 08:48:29;;;;;;;5.90;2.45;;;;;;;26.33;31.36;99593.84;4318917;33;33718;-79
2022/05/14 08:51:10;;;;;;;4.43;2.58;;;;;;;25.52;33.57;99594.09;4306073;33;34794;-79
2022/05/14 08:53:40;;;;;;;4.00;2.78;;;;;;;25.08;35.73;99591.78;4318604;33;34949;-78
2022/05/14 08:56:14;;;;;;;3.37;2.00;;;;;;;25.19;35.06;99594.56;4317909;33;34450;-78
2022/05/14 08:59:04;;;;;;;4.53;1.58;;;;;;;25.58;32.82;99598.16;4318758;33;33502;-83
2022/05/14 09:01:37;;;;;;;5.00;2.20;;;;;;;25.35;34.29;99595.25;4318801;33;34078;-79
2022/05/14 09:04:09;;;;;;;4.43;2.47;;;;;;;25.73;32.43;99589.09;4318901;33;35836;-80
2022/05/14 09:06:38;;;;;;;6.45;1.92;;;;;;;26.03;32.67;99595.94;4318151;33;34258;-79
2022/05/14 09:09:07;;;;;;;3.53;2.00;;;;;;;25.38;33.50;99598.66;4319572;33;33567;-79
2022/05/14 09:11:45;;;;;;;6.05;2.35;;;;;;;25.61;33.33;99599.78;4317376;33;34320;-80
2022/05/14 09:14:28;;;;;;;4.47;2.20;;;;;;;26.41;34.35;99596.81;4319681;33;35971;-79
2022/05/14 09:17:05;;;;;;;3.95;2.10;;;;;;;26.55;33.38;99596.66;4317914;33;34514;-79
2022/05/14 09:19:38;;;;;;;3.33;2.08;;;;;;;25.85;33.11;99598.03;4317784;33;34124;-80
2022/05/14 09:22:25;;;;;;;3.92;2.10;;;;;;;26.51;32.96;99589.84;4319679;33;32463;-79
2022/05/14 09:24:57;;;;;;;5.93;2.75;;;;;;;25.49;34.46;99599.63;4316597;33;35936;-78
2022/05/14 09:27:29;;;;;;;7.03;2.30;;;;;;;25.97;32.95;99596.34;4319910;33;34133;-79
2022/05/14 09:30:03;;;;;;;4.82;2.60;;;;;;;26.25;32.83;99595.25;4311972;33;186707;-79
2022/05/14 09:32:43;;;;;;;5.57;2.45;;;;;;;26.23;32.13;99599.84;4324252;33;33984;-80
2022/05/14 09:35:24;;;;;;;5.03;2.03;;;;;;;26.46;30.67;99605.34;4319190;33;35055;-80
2022/05/14 09:38:06;;;;;;;2.87;2.12;;;;;;;27.02;31.99;99600.34;4317333;33;34329;-78
2022/05/14 09:40:36;;;;;;;4.65;2.15;;;;;;;26.40;30.62;99592.44;4318167;33;34553;-77
2022/05/14 09:43:22;;;;;;;5.22;2.37;;;;;;;26.73;32.48;99598.97;4319940;33;33948;-77
2022/05/14 09:46:03;;;;;;;;;;;;;;;27.17;31.58;99590.28;4314127;33;35181;-77
2022/05/14 09:48:48;;;;;;;4.12;2.30;;;;;;;26.22;33.02;99584.78;4317348;33;34867;-77
2022/05/14 09:51:32;;;;;;;6.07;2.40;;;;;;;26.53;30.55;99587.91;4322252;33;33502;-77
2022/05/14 09:54:13;;;;;;;3.62;1.95;;;;;;;26.96;29.18;99584.75;4318265;33;33920;-78
2022/05/14 09:57:10;;;;;;;4.15;2.20;;;;;;;26.76;31.98;99583.56;4305337;33;34754;-77
2022/05/14 10:00:05;;;;;;;4.45;2.72;;;;;;;26.75;32.87;99573.00;4319389;33;34454;-77
2022/05/14 10:02:44;;;;;;;9.63;2.70;;;;;;;26.47;32.83;99581.22;4319351;33;33517;-77
2022/05/14 10:05:37;;;;;;;4.45;2.50;;;;;;;26.63;31.18;99578.28;4319736;33;34089;-77
2022/05/14 10:08:09;;;;;;;6.87;2.50;;;;;;;26.29;31.82;99586.06;4333821;33;35068;-77
2022/05/14 10:10:48;;;;;;;4.05;2.40;;;;;;;26.66;30.43;99574.53;4313666;33;34421;-79
2022/05/14 10:13:37;;;;;;;8.93;2.50;;;;;;;27.24;30.05;99571.97;4319222;33;34235;-78
2022/05/14 10:16:19;;;;;;;5.57;2.55;;;;;;;27.43;29.69;99564.25;4304959;33;33987;-78
2022/05/14 10:19:00;;;;;;;6.12;2.40;;;;;;;26.81;33.57;99575.22;4303557;33;35066;-77
2022/05/14 10:21:44;;;;;;;5.97;2.47;;;;;;;26.70;32.90;99577.81;4312927;33;35313;-77
2022/05/14 10:29:14;;;;;;;3.70;2.53;;;;;;;27.91;30.81;99570.44;4469001;32;32906;-82
2022/05/14 10:31:45;;;;;;;4.22;2.80;;;;;;;27.21;31.34;99556.16;4466135;32;33919;-83
2022/05/14 10:34:18;;;;;;;9.10;2.65;;;;;;;27.16;32.69;99561.00;4478783;32;35200;-83
2022/05/14 10:36:55;;;;;;;6.40;2.65;;;;;;;26.41;31.36;99567.44;4465790;32;34202;-84
2022/05/14 10:39:32;;;;;;;8.30;3.58;;;;;;;27.23;29.36;99565.78;4465380;32;33411;-82
2022/05/14 10:42:15;;;;;;;7.23;2.70;;;;;;;27.04;30.57;99562.81;4478096;32;33758;-83
2022/05/14 10:44:54;;;;;;;3.78;2.58;;;;;;;27.07;31.99;99564.38;4481921;32;35042;-82
2022/05/14 10:47:22;;;;;;;3.87;2.65;;;;;;;26.78;33.55;99560.25;4452697;32;34085;-83
2022/05/14 10:50:08;;;;;;;3.42;2.12;;;;;;;26.75;30.41;99554.28;4452452;32;33555;-82
2022/05/14 10:52:39;;;;;;;8.93;2.92;;;;;;;26.46;30.31;99554.59;4460219;32;34691;-82
2022/05/14 10:55:29;;;;;;;4.30;2.45;;;;;;;26.26;31.24;99548.91;4452070;32;34987;-84
2022/05/14 10:58:01;;;;;;;3.65;2.30;;;;;;;26.71;30.09;99552.81;4454974;32;34977;-84
2022/05/14 11:00:39;;;;;;;4.07;2.30;;;;;;;26.84;30.54;99550.94;4465259;32;34207;-83
2022/05/14 11:03:25;;;;;;;5.85;2.30;;;;;;;26.33;30.93;99553.78;4466326;32;33877;-82
2022/05/14 11:06:03;;;;;;;5.25;2.60;;;;;;;26.79;29.60;99539.72;4462805;32;34879;-83
2022/05/14 11:08:41;;;;;;;3.37;2.45;;;;;;;26.99;32.01;99541.75;4477976;32;34308;-83
2022/05/14 11:11:20;;;;;;;8.60;2.87;;;;;;;26.46;33.38;99543.94;4465779;32;34088;-83
2022/05/14 11:13:56;;;;;;;4.53;3.03;;;;;;;27.05;30.97;99540.44;4467626;32;34820;-82
2022/05/14 11:16:55;;;;;;;7.10;3.20;;;;;;;27.29;29.64;99535.06;4480345;32;34659;-82
2022/05/14 11:19:31;;;;;;;5.68;2.53;;;;;;;27.00;31.85;99553.28;4481712;32;34316;-82
2022/05/14 11:22:01;;;;;;;5.70;2.72;;;;;;;26.82;30.05;99539.50;4466532;32;34048;-82
2022/05/14 11:24:40;;;;;;;4.97;1.95;;;;;;;28.13;28.37;99532.06;4467290;32;34639;-82
2022/05/14 11:27:10;;;;;;;5.18;2.30;;;;;;;27.80;29.40;99518.56;4455224;32;34943;-82
2022/05/14 11:29:48;;;;;;;4.30;2.80;;;;;;;27.04;30.51;99539.59;4464959;32;35099;-82
2022/05/14 11:32:18;;;;;;;6.03;2.97;;;;;;;26.49;30.01;99533.88;4466161;32;33419;-82
2022/05/14 11:34:58;;;;;;;2.85;2.12;;;;;;;25.59;31.99;99537.66;4481516;32;34058;-85
2022/05/14 11:37:39;;;;;;;6.20;2.33;;;;;;;26.55;30.44;99532.56;4446851;32;35982;-82
2022/05/14 11:40:23;;;;;;;4.47;1.95;;;;;;;26.43;29.29;99523.63;4441752;32;34265;-82
2022/05/14 11:42:53;;;;;;;4.40;2.30;;;;;;;27.17;30.04;99536.81;4457138;32;35046;-81
2022/05/14 11:45:29;;;;;;;4.45;2.50;;;;;;;27.55;28.37;99521.50;4455360;32;34636;-83
2022/05/14 11:48:06;;;;;;;;;;;;;;;27.40;28.65;99519.03;4441884;32;36015;-82
2022/05/14 11:50:43;;;;;;;5.62;2.60;;;;;;;26.62;27.82;99517.81;4455895;32;34789;-81
2022/05/14 11:53:17;;;;;;;5.37;3.30;;;;;;;26.33;27.92;99517.28;4457244;32;33547;-81
2022/05/14 11:56:02;;;;;;;6.15;2.67;;;;;;;26.20;29.83;99516.47;4455861;32;34032;-81
2022/05/14 11:58:51;;;;;;;4.15;2.62;;;;;;;26.96;28.68;99520.59;4454469;32;34344;-82
2022/05/14 12:01:24;;;;;;;6.43;2.60;;;;;;;26.77;30.95;99518.50;4464697;32;34333;-81
2022/05/14 12:03:53;;;;;;;4.05;2.10;;;;;;;26.06;29.90;99520.13;4454309;32;33445;-81
2022/05/14 12:06:49;;;;;;;8.77;2.62;;;;;;;26.56;30.92;99512.91;4459793;32;33924;-82
2022/05/14 12:09:20;;;;;;;4.68;2.50;;;;;;;27.12;29.69;99524.78;4470856;32;35869;-82
2022/05/14 12:12:01;;;;;;;4.85;2.15;;;;;;;26.19;30.88;99512.94;4461899;32;34370;-82
2022/05/14 12:14:36;;;;;;;5.37;3.40;;;;;;;26.89;30.32;99519.38;4455366;32;33303;-81
2022/05/14 12:17:06;;;;;;;10.10;2.87;;;;;;;27.08;29.41;99515.31;4442036;32;33914;-82
2022/05/14 12:19:38;;;;;;;3.28;2.05;;;;;;;26.67;27.45;99512.97;4440854;32;35806;-81
2022/05/14 12:22:18;;;;;;;3.30;2.08;;;;;;;26.70;28.49;99509.22;4460368;32;34254;-81
2022/05/14 12:25:07;;;;;;;6.28;2.87;;;;;;;26.79;30.83;99494.31;4453866;32;33320;-82